Time;durP1;ratioP1;P1;durP2;ratioP2;P2;SDS_P1;SDS_P2;PMS_P1;PMS_P2;Temp;Humidity;BMP_temperature;BMP_pressure;BME280_temperature;BME280_humidity;BME280_pressure;Samples;Min_cycle;Max_cycle;Signal;HPM_P1;HPM_P2
2021/08/28 00:00:17;;;;;;;57.40;53.47;;;;;;;;;;5055992;28;20431;-84
2021/08/28 00:02:44;;;;;;;54.20;50.90;;;;;;;;;;5056049;28;20924;-84
2021/08/28 00:05:12;;;;;;;53.83;50.63;;;;;;;;;;5056072;28;20417;-84
2021/08/28 00:07:39;;;;;;;51.17;47.97;;;;;;;;;;5055892;28;20443;-84
2021/08/28 00:10:09;;;;;;;52.60;49.27;;;;;;;;;;5055742;28;20470;-84
2021/08/28 00:12:36;;;;;;;51.60;48.50;;;;;;;;;;5055487;28;20447;-84
2021/08/28 00:15:04;;;;;;;51.97;48.77;;;;;;;;;;5056105;28;20558;-84
2021/08/28 00:17:34;;;;;;;53.33;49.80;;;;;;;;;;5056319;28;20581;-83
2021/08/28 00:20:02;;;;;;;55.67;52.20;;;;;;;;;;5055650;28;20445;-84
2021/08/28 00:22:30;;;;;;;55.83;52.40;;;;;;;;;;5055615;28;20921;-84
2021/08/28 00:24:57;;;;;;;54.40;51.13;;;;;;;;;;5055431;28;20476;-84
2021/08/28 00:27:26;;;;;;;55.33;51.40;;;;;;;;;;5055853;28;20401;-83
2021/08/28 00:29:53;;;;;;;53.23;49.60;;;;;;;;;;5055745;28;20446;-84
2021/08/28 00:32:20;;;;;;;51.80;48.50;;;;;;;;;;5055567;28;20459;-83
2021/08/28 00:34:48;;;;;;;48.87;45.97;;;;;;;;;;5054828;28;20800;-84
2021/08/28 00:37:15;;;;;;;54.00;50.50;;;;;;;;;;5055568;28;20431;-84
2021/08/28 00:39:42;;;;;;;54.23;50.33;;;;;;;;;;5056141;28;20425;-84
2021/08/28 00:42:10;;;;;;;52.30;48.77;;;;;;;;;;5055656;28;20436;-84
2021/08/28 00:44:40;;;;;;;53.40;49.50;;;;;;;;;;5055485;28;20438;-83
2021/08/28 00:47:07;;;;;;;53.97;50.57;;;;;;;;;;5055301;28;20413;-84
2021/08/28 00:49:34;;;;;;;53.47;50.03;;;;;;;;;;5056312;28;20442;-84
2021/08/28 00:52:02;;;;;;;51.83;48.43;;;;;;;;;;5055746;28;20435;-84
2021/08/28 00:54:30;;;;;;;53.63;49.93;;;;;;;;;;5055317;28;20442;-84
2021/08/28 00:56:57;;;;;;;54.70;50.47;;;;;;;;;;5055238;28;20903;-84
2021/08/28 00:59:25;;;;;;;54.47;50.30;;;;;;;;;;5055297;28;20418;-84
2021/08/28 01:01:54;;;;;;;53.77;50.17;;;;;;;;;;5055800;28;20435;-83
2021/08/28 01:04:22;;;;;;;53.40;49.70;;;;;;;;;;5055771;28;20420;-83
2021/08/28 01:06:52;;;;;;;53.43;49.47;;;;;;;;;;5055613;28;20440;-82
2021/08/28 01:09:23;;;;;;;51.33;48.07;;;;;;;;;;5055582;28;20801;-83
2021/08/28 01:11:52;;;;;;;50.77;47.47;;;;;;;;;;5056063;28;20450;-82
2021/08/28 01:14:22;;;;;;;50.20;47.03;;;;;;;;;;5056758;28;20546;-83
2021/08/28 01:16:52;;;;;;;52.33;48.80;;;;;;;;;;5056397;28;20405;-83
2021/08/28 01:19:23;;;;;;;52.40;48.40;;;;;;;;;;5056619;28;20417;-83
2021/08/28 01:21:51;;;;;;;50.83;47.67;;;;;;;;;;5055725;28;20418;-84
2021/08/28 01:24:19;;;;;;;54.67;50.90;;;;;;;;;;5054606;28;20416;-84
2021/08/28 01:26:50;;;;;;;54.13;50.60;;;;;;;;;;5054445;28;20491;-84
2021/08/28 01:29:20;;;;;;;53.77;49.60;;;;;;;;;;5055076;28;20430;-84
2021/08/28 01:31:48;;;;;;;54.73;50.83;;;;;;;;;;5037050;28;20417;-84
2021/08/28 01:34:18;;;;;;;53.37;49.30;;;;;;;;;;5055417;28;20819;-84
2021/08/28 01:36:46;;;;;;;51.87;48.20;;;;;;;;;;5054629;28;20488;-84
2021/08/28 01:39:13;;;;;;;53.80;49.80;;;;;;;;;;5055577;28;20444;-84
2021/08/28 01:41:41;;;;;;;55.37;51.37;;;;;;;;;;5057277;28;20418;-84
2021/08/28 01:44:10;;;;;;;56.77;52.10;;;;;;;;;;5056002;28;20424;-83
2021/08/28 01:46:40;;;;;;;52.70;49.17;;;;;;;;;;5055793;28;20832;-83
2021/08/28 01:49:09;;;;;;;52.30;48.50;;;;;;;;;;5056556;28;20500;-84
2021/08/28 01:51:37;;;;;;;51.73;47.80;;;;;;;;;;5038509;28;20417;-83
2021/08/28 01:54:04;;;;;;;53.23;49.33;;;;;;;;;;5057534;28;20443;-84
2021/08/28 01:56:32;;;;;;;50.63;47.30;;;;;;;;;;5056724;28;20519;-83
2021/08/28 01:59:00;;;;;;;54.57;50.47;;;;;;;;;;5056240;28;20414;-84
2021/08/28 02:01:28;;;;;;;52.60;49.00;;;;;;;;;;5057011;28;20792;-83
2021/08/28 02:03:59;;;;;;;54.80;50.40;;;;;;;;;;5039607;28;20750;-83
2021/08/28 02:06:30;;;;;;;56.13;51.30;;;;;;;;;;5056596;28;20431;-83
2021/08/28 02:08:59;;;;;;;56.87;52.33;;;;;;;;;;5056054;28;20466;-84
2021/08/28 02:11:33;;;;;;;57.00;52.60;;;;;;;;;;5056436;28;20425;-84
2021/08/28 02:14:03;;;;;;;55.80;51.60;;;;;;;;;;5056626;28;20409;-84
2021/08/28 02:16:33;;;;;;;60.13;55.13;;;;;;;;;;5059481;28;20465;-83
2021/08/28 02:19:07;;;;;;;56.13;51.53;;;;;;;;;;5056722;28;20765;-84
2021/08/28 02:21:36;;;;;;;55.63;51.23;;;;;;;;;;5058726;28;20759;-83
2021/08/28 02:24:05;;;;;;;54.57;49.37;;;;;;;;;;5056343;28;20454;-84
2021/08/28 02:26:35;;;;;;;55.13;50.73;;;;;;;;;;5055562;28;20472;-84
2021/08/28 02:29:04;;;;;;;55.40;51.20;;;;;;;;;;5055185;28;20447;-84
2021/08/28 02:31:33;;;;;;;55.10;50.70;;;;;;;;;;5038049;28;20925;-84
2021/08/28 02:34:03;;;;;;;53.50;48.60;;;;;;;;;;5054722;28;20421;-84
2021/08/28 02:36:31;;;;;;;55.33;50.63;;;;;;;;;;5055110;28;20461;-84
2021/08/28 02:38:59;;;;;;;56.13;51.77;;;;;;;;;;5055819;28;20413;-84
2021/08/28 02:41:28;;;;;;;55.40;50.43;;;;;;;;;;5054987;28;20410;-84
2021/08/28 02:43:57;;;;;;;58.40;53.40;;;;;;;;;;5054998;28;20422;-84
2021/08/28 02:46:26;;;;;;;58.87;53.63;;;;;;;;;;5055311;28;20448;-84
2021/08/28 02:48:54;;;;;;;55.70;51.00;;;;;;;;;;5055306;28;20790;-84
2021/08/28 02:51:23;;;;;;;61.73;55.57;;;;;;;;;;5055534;28;20409;-84
2021/08/28 02:53:52;;;;;;;55.20;50.90;;;;;;;;;;5054946;28;20771;-84
2021/08/28 02:56:22;;;;;;;57.03;52.03;;;;;;;;;;5054824;28;20955;-84
2021/08/28 02:58:50;;;;;;;58.20;52.70;;;;;;;;;;5056293;28;20408;-84
2021/08/28 03:01:19;;;;;;;61.00;55.60;;;;;;;;;;5058575;28;20412;-83
2021/08/28 03:03:47;;;;;;;56.63;51.20;;;;;;;;;;5058945;28;20413;-84
2021/08/28 03:06:14;;;;;;;59.93;54.40;;;;;;;;;;5058626;28;20434;-84
2021/08/28 03:08:44;;;;;;;58.77;53.67;;;;;;;;;;5059059;28;20445;-85
2021/08/28 03:11:12;;;;;;;56.80;51.93;;;;;;;;;;5058764;28;20434;-84
2021/08/28 03:13:40;;;;;;;55.43;50.93;;;;;;;;;;5040611;28;20788;-84
2021/08/28 03:16:09;;;;;;;55.50;50.90;;;;;;;;;;5060158;28;20847;-84
2021/08/28 03:18:38;;;;;;;54.07;49.97;;;;;;;;;;5058511;28;20416;-84
2021/08/28 03:21:05;;;;;;;51.73;47.90;;;;;;;;;;5058068;28;20413;-84
2021/08/28 03:23:33;;;;;;;53.70;48.70;;;;;;;;;;5058256;28;20476;-84
2021/08/28 03:26:02;;;;;;;54.60;49.40;;;;;;;;;;5057665;28;20482;-84
2021/08/28 03:28:30;;;;;;;51.37;46.73;;;;;;;;;;5057808;28;20438;-84
2021/08/28 03:30:57;;;;;;;52.00;47.30;;;;;;;;;;5057623;28;20964;-84
2021/08/28 03:33:25;;;;;;;49.00;44.50;;;;;;;;;;5058009;28;20418;-85
2021/08/28 03:35:53;;;;;;;48.60;44.10;;;;;;;;;;5058247;28;20453;-84
2021/08/28 03:38:21;;;;;;;49.70;45.20;;;;;;;;;;5040530;28;20939;-85
2021/08/28 03:40:49;;;;;;;62.47;47.73;;;;;;;;;;5063652;28;20451;-84
2021/08/28 03:43:17;;;;;;;54.47;48.67;;;;;;;;;;5057812;28;20440;-84
2021/08/28 03:45:45;;;;;;;57.27;45.80;;;;;;;;;;5057830;28;20432;-85
2021/08/28 03:48:13;;;;;;;64.30;45.17;;;;;;;;;;5057559;28;20441;-84
2021/08/28 03:50:41;;;;;;;51.03;44.93;;;;;;;;;;5057498;28;20462;-84
2021/08/28 03:53:08;;;;;;;49.37;44.27;;;;;;;;;;5057420;28;20446;-84
2021/08/28 03:55:36;;;;;;;54.63;46.53;;;;;;;;;;5057415;28;20477;-84
2021/08/28 03:58:03;;;;;;;49.97;44.63;;;;;;;;;;5057750;28;20454;-85
2021/08/28 04:00:33;;;;;;;50.07;45.30;;;;;;;;;;5058090;28;20441;-84
2021/08/28 04:03:00;;;;;;;71.77;45.80;;;;;;;;;;5040504;28;20473;-84
2021/08/28 04:05:28;;;;;;;75.27;45.60;;;;;;;;;;5057415;28;20446;-85
2021/08/28 04:07:55;;;;;;;53.13;45.57;;;;;;;;;;5057569;28;20444;-84
2021/08/28 04:10:23;;;;;;;66.93;47.97;;;;;;;;;;5055817;28;20440;-84
2021/08/28 04:12:50;;;;;;;90.20;48.60;;;;;;;;;;5056584;28;20521;-84
2021/08/28 04:15:17;;;;;;;102.07;52.00;;;;;;;;;;5058606;28;20414;-85
2021/08/28 04:17:46;;;;;;;128.70;54.13;;;;;;;;;;5056126;28;20435;-84
2021/08/28 04:20:14;;;;;;;96.17;48.73;;;;;;;;;;5056106;28;20432;-84
2021/08/28 04:22:41;;;;;;;80.80;50.63;;;;;;;;;;5056101;28;20478;-84
2021/08/28 04:25:09;;;;;;;71.77;52.93;;;;;;;;;;5070907;28;20821;-84
2021/08/28 04:27:36;;;;;;;97.20;52.83;;;;;;;;;;5057006;28;20786;-84
2021/08/28 04:30:04;;;;;;;82.07;50.03;;;;;;;;;;5056008;28;20443;-84
2021/08/28 04:32:31;;;;;;;62.47;49.07;;;;;;;;;;5056023;28;20450;-84
2021/08/28 04:35:00;;;;;;;56.10;47.50;;;;;;;;;;5056048;28;20770;-84
2021/08/28 04:37:28;;;;;;;52.20;46.97;;;;;;;;;;5055902;28;20453;-84
2021/08/28 04:39:56;;;;;;;55.30;48.93;;;;;;;;;;5056209;28;20413;-84
2021/08/28 04:42:23;;;;;;;51.80;47.00;;;;;;;;;;5057738;28;20466;-84
2021/08/28 04:44:53;;;;;;;54.13;48.37;;;;;;;;;;5066485;28;20420;-84
2021/08/28 04:47:21;;;;;;;55.17;49.67;;;;;;;;;;5060716;28;20451;-84
2021/08/28 04:49:48;;;;;;;52.83;47.50;;;;;;;;;;5055803;28;20814;-84
2021/08/28 04:52:17;;;;;;;54.53;49.13;;;;;;;;;;5055410;28;20422;-84
2021/08/28 04:54:44;;;;;;;52.10;47.53;;;;;;;;;;5037913;28;20421;-84
2021/08/28 04:57:12;;;;;;;51.23;46.30;;;;;;;;;;5055715;28;20481;-84
2021/08/28 04:59:39;;;;;;;52.53;47.73;;;;;;;;;;5055255;28;20439;-85
2021/08/28 05:02:07;;;;;;;54.53;48.83;;;;;;;;;;5056418;28;20436;-85
2021/08/28 05:04:34;;;;;;;59.23;49.33;;;;;;;;;;5057540;28;20956;-85
2021/08/28 05:07:01;;;;;;;54.70;49.20;;;;;;;;;;5055071;28;20435;-84
2021/08/28 05:09:30;;;;;;;55.03;47.93;;;;;;;;;;5055081;28;20490;-84
2021/08/28 05:11:58;;;;;;;49.80;45.23;;;;;;;;;;5055066;28;20425;-84
2021/08/28 05:14:25;;;;;;;54.00;48.20;;;;;;;;;;5055391;28;20405;-85
2021/08/28 05:16:52;;;;;;;46.40;42.33;;;;;;;;;;5054706;28;20463;-85
2021/08/28 05:19:20;;;;;;;44.83;41.03;;;;;;;;;;5054697;28;20446;-84
2021/08/28 05:21:47;;;;;;;46.13;42.43;;;;;;;;;;5036357;28;20498;-83
2021/08/28 05:24:15;;;;;;;44.70;40.83;;;;;;;;;;5054728;28;20440;-83
2021/08/28 05:26:43;;;;;;;43.73;40.13;;;;;;;;;;5037237;28;20545;-83
2021/08/28 05:29:11;;;;;;;45.97;42.17;;;;;;;;;;5054725;28;20420;-85
2021/08/28 05:31:38;;;;;;;40.90;37.80;;;;;;;;;;5055023;28;20430;-85
2021/08/28 05:34:06;;;;;;;43.17;39.97;;;;;;;;;;5054441;28;20474;-83
2021/08/28 05:36:33;;;;;;;41.97;38.67;;;;;;;;;;5054979;28;20485;-83
2021/08/28 05:39:00;;;;;;;40.67;37.87;;;;;;;;;;5054467;28;20409;-82
2021/08/28 05:41:29;;;;;;;47.87;43.47;;;;;;;;;;5054352;28;20466;-84
2021/08/28 05:43:57;;;;;;;46.83;42.63;;;;;;;;;;5054594;28;20482;-84
2021/08/28 05:46:25;;;;;;;48.00;42.63;;;;;;;;;;5056146;28;20446;-84
2021/08/28 05:48:52;;;;;;;41.97;38.77;;;;;;;;;;5056668;28;20438;-85
2021/08/28 05:51:20;;;;;;;42.90;39.50;;;;;;;;;;5055934;28;20438;-84
2021/08/28 05:53:49;;;;;;;43.73;40.63;;;;;;;;;;5055828;28;20488;-84
2021/08/28 05:56:19;;;;;;;40.27;37.53;;;;;;;;;;5055256;28;20808;-83
2021/08/28 05:58:47;;;;;;;42.53;39.40;;;;;;;;;;5055626;28;20761;-83
2021/08/28 06:01:20;;;;;;;43.40;40.17;;;;;;;;;;5037315;28;20442;-82
2021/08/28 06:03:47;;;;;;;44.90;41.50;;;;;;;;;;5055390;28;20891;-80
2021/08/28 06:06:14;;;;;;;46.10;42.40;;;;;;;;;;5056147;28;20446;-82
2021/08/28 06:08:42;;;;;;;42.97;39.97;;;;;;;;;;5055932;28;20478;-82
2021/08/28 06:11:09;;;;;;;46.60;42.90;;;;;;;;;;5056064;28;20538;-84
2021/08/28 06:13:36;;;;;;;43.03;39.80;;;;;;;;;;5037913;28;20448;-84
2021/08/28 06:16:04;;;;;;;44.70;40.90;;;;;;;;;;5056859;28;20451;-82
2021/08/28 06:18:33;;;;;;;45.07;41.70;;;;;;;;;;5056605;28;20431;-83
2021/08/28 06:21:02;;;;;;;42.07;39.20;;;;;;;;;;5055616;28;20431;-82
2021/08/28 06:23:30;;;;;;;42.47;39.13;;;;;;;;;;5056082;28;20521;-84
2021/08/28 06:25:58;;;;;;;44.27;40.17;;;;;;;;;;5056031;28;20482;-84
2021/08/28 06:28:25;;;;;;;42.57;39.43;;;;;;;;;;5064075;28;20440;-84
2021/08/28 06:30:53;;;;;;;40.33;37.60;;;;;;;;;;5056314;28;20406;-82
2021/08/28 06:33:20;;;;;;;42.30;38.37;;;;;;;;;;5057220;28;20431;-82
2021/08/28 06:35:51;;;;;;;41.53;38.40;;;;;;;;;;5060485;28;20421;-82
2021/08/28 06:38:19;;;;;;;44.20;40.60;;;;;;;;;;5062056;28;20812;-82
2021/08/28 06:40:46;;;;;;;44.43;41.20;;;;;;;;;;5059784;28;20420;-82
2021/08/28 06:43:14;;;;;;;44.47;41.27;;;;;;;;;;5060095;28;20780;-82
2021/08/28 06:45:41;;;;;;;38.67;36.03;;;;;;;;;;5059406;28;20791;-82
2021/08/28 06:48:10;;;;;;;35.97;33.77;;;;;;;;;;5061638;28;20421;-82
2021/08/28 06:50:38;;;;;;;38.17;35.40;;;;;;;;;;5066403;28;20443;-84
2021/08/28 06:53:07;;;;;;;38.37;35.67;;;;;;;;;;5063975;28;20413;-84
2021/08/28 06:55:38;;;;;;;34.43;32.43;;;;;;;;;;5063508;28;20437;-82
2021/08/28 06:58:05;;;;;;;36.90;34.70;;;;;;;;;;5062066;28;20460;-83
2021/08/28 07:00:33;;;;;;;38.87;36.63;;;;;;;;;;5063490;28;20917;-81
2021/08/28 07:03:00;;;;;;;36.90;34.80;;;;;;;;;;5045615;28;20449;-81
2021/08/28 07:05:27;;;;;;;35.40;33.40;;;;;;;;;;5063357;28;20436;-81
2021/08/28 07:07:59;;;;;;;34.57;32.67;;;;;;;;;;5062148;28;20478;-80
2021/08/28 07:10:37;;;;;;;35.47;33.47;;;;;;;;;;5063209;28;20509;-81
2021/08/28 07:13:12;;;;;;;36.40;34.40;;;;;;;;;;5060663;28;20434;-82
2021/08/28 07:15:40;;;;;;;33.53;31.83;;;;;;;;;;5059796;28;20500;-81
2021/08/28 07:18:09;;;;;;;36.10;34.03;;;;;;;;;;5060687;28;20460;-80
2021/08/28 07:20:36;;;;;;;36.00;33.90;;;;;;;;;;5061035;28;20485;-83
2021/08/28 07:23:07;;;;;;;35.50;33.33;;;;;;;;;;5064709;28;20792;-82
2021/08/28 07:25:37;;;;;;;37.90;35.70;;;;;;;;;;5062724;28;20482;-82
2021/08/28 07:28:07;;;;;;;35.73;33.47;;;;;;;;;;5061348;28;20447;-82
2021/08/28 07:30:35;;;;;;;37.33;35.23;;;;;;;;;;5058826;28;20454;-82
2021/08/28 07:33:02;;;;;;;36.30;34.00;;;;;;;;;;5059351;28;20442;-82
2021/08/28 07:35:31;;;;;;;36.00;33.90;;;;;;;;;;5059139;28;20441;-82
2021/08/28 07:37:59;;;;;;;36.13;34.13;;;;;;;;;;5057180;28;20833;-82
2021/08/28 07:40:27;;;;;;;37.43;35.30;;;;;;;;;;5058308;28;20405;-82
2021/08/28 07:42:55;;;;;;;33.80;31.90;;;;;;;;;;5057854;28;20519;-82
2021/08/28 07:45:24;;;;;;;35.37;33.27;;;;;;;;;;5064154;28;20414;-82
2021/08/28 07:47:53;;;;;;;32.13;30.37;;;;;;;;;;5063148;28;20785;-82
2021/08/28 07:50:21;;;;;;;29.33;27.73;;;;;;;;;;5065925;28;20435;-82
2021/08/28 07:52:48;;;;;;;30.43;28.73;;;;;;;;;;5060093;28;20949;-82
2021/08/28 07:55:16;;;;;;;29.90;28.40;;;;;;;;;;5059016;28;20776;-81
2021/08/28 07:57:43;;;;;;;29.03;27.50;;;;;;;;;;5041235;28;20486;-81
2021/08/28 08:00:13;;;;;;;30.40;28.73;;;;;;;;;;5040678;28;20429;-82
2021/08/28 08:02:42;;;;;;;28.23;26.73;;;;;;;;;;5058908;28;20455;-81
2021/08/28 08:05:10;;;;;;;29.20;27.60;;;;;;;;;;5057776;28;20445;-82
2021/08/28 08:07:39;;;;;;;29.30;27.70;;;;;;;;;;5063198;28;20442;-81
2021/08/28 08:10:07;;;;;;;25.87;24.47;;;;;;;;;;5062515;28;20445;-84
2021/08/28 08:12:35;;;;;;;26.93;25.53;;;;;;;;;;5062972;28;20454;-83
2021/08/28 08:15:02;;;;;;;26.37;25.07;;;;;;;;;;5057872;28;20436;-82
2021/08/28 08:17:30;;;;;;;26.60;25.03;;;;;;;;;;5057663;28;20995;-86
2021/08/28 08:19:59;;;;;;;27.07;25.57;;;;;;;;;;5057554;28;20416;-84
2021/08/28 08:22:26;;;;;;;27.13;25.37;;;;;;;;;;5057293;28;20904;-82
2021/08/28 08:24:53;;;;;;;26.80;25.40;;;;;;;;;;5056669;28;20444;-82
2021/08/28 08:27:21;;;;;;;26.00;24.50;;;;;;;;;;5058529;28;20921;-84
2021/08/28 08:29:49;;;;;;;24.07;22.87;;;;;;;;;;5056377;28;20811;-82
2021/08/28 08:32:17;;;;;;;26.17;24.70;;;;;;;;;;5056548;28;20448;-82
2021/08/28 08:34:44;;;;;;;24.43;23.13;;;;;;;;;;5038796;28;20460;-82
2021/08/28 08:37:13;;;;;;;24.17;22.50;;;;;;;;;;5056572;28;20974;-82
2021/08/28 08:39:41;;;;;;;24.23;22.83;;;;;;;;;;5055476;28;20436;-82
2021/08/28 08:42:09;;;;;;;23.80;22.50;;;;;;;;;;5039814;28;20440;-82
2021/08/28 08:44:37;;;;;;;24.37;23.07;;;;;;;;;;5056461;28;20804;-82
2021/08/28 08:47:06;;;;;;;23.70;22.47;;;;;;;;;;5056188;28;20843;-86
2021/08/28 08:49:34;;;;;;;25.63;24.00;;;;;;;;;;5039671;28;20830;-86
2021/08/28 08:52:02;;;;;;;26.20;24.80;;;;;;;;;;5075103;28;20453;-85
2021/08/28 08:54:31;;;;;;;24.00;22.70;;;;;;;;;;5079529;28;20439;-85
2021/08/28 08:56:58;;;;;;;25.20;23.70;;;;;;;;;;5057505;28;20927;-86
2021/08/28 08:59:26;;;;;;;24.93;23.57;;;;;;;;;;5059437;28;20437;-85
2021/08/28 09:01:55;;;;;;;24.27;22.97;;;;;;;;;;5060422;28;20439;-83
2021/08/28 09:04:24;;;;;;;24.57;23.27;;;;;;;;;;5060039;28;20421;-85
2021/08/28 09:06:55;;;;;;;24.43;23.03;;;;;;;;;;5065943;28;20452;-85
2021/08/28 09:09:26;;;;;;;25.63;24.03;;;;;;;;;;5063857;28;20538;-84
2021/08/28 09:12:03;;;;;;;24.30;23.00;;;;;;;;;;5070783;28;20429;-84
2021/08/28 09:14:30;;;;;;;25.60;24.07;;;;;;;;;;5062033;28;20439;-85
2021/08/28 09:16:58;;;;;;;24.40;23.10;;;;;;;;;;5067065;28;20466;-83
2021/08/28 09:19:42;;;;;;;23.60;22.40;;;;;;;;;;5048533;28;20421;-82
2021/08/28 09:22:09;;;;;;;23.80;22.60;;;;;;;;;;5063266;28;20455;-83
2021/08/28 09:24:49;;;;;;;23.90;22.50;;;;;;;;;;5067123;28;20441;-85
2021/08/28 09:30:19;;;;;;;23.53;22.33;;;;;;;;;;5068986;28;20435;-83
2021/08/28 09:32:48;;;;;;;22.27;20.97;;;;;;;;;;5072540;28;20431;-82
2021/08/28 09:35:26;;;;;;;23.30;22.10;;;;;;;;;;5073606;28;20433;-83
2021/08/28 09:38:03;;;;;;;23.67;22.37;;;;;;;;;;5066531;28;20493;-95
2021/08/28 09:40:32;;;;;;;22.10;21.00;;;;;;;;;;5064337;28;20455;-83
2021/08/28 09:43:04;;;;;;;21.40;20.37;;;;;;;;;;5065637;28;20435;-82
2021/08/28 09:45:35;;;;;;;22.70;21.60;;;;;;;;;;5060205;28;20429;-82
2021/08/28 09:48:04;;;;;;;23.10;22.00;;;;;;;;;;5061593;28;20441;-85
2021/08/28 09:50:33;;;;;;;22.03;20.93;;;;;;;;;;5047004;28;20502;-79
2021/08/28 09:53:03;;;;;;;23.10;21.60;;;;;;;;;;5066934;28;20433;-83
2021/08/28 09:55:31;;;;;;;21.70;20.70;;;;;;;;;;5058261;28;20502;-83
2021/08/28 09:57:59;;;;;;;22.30;21.23;;;;;;;;;;5055763;28;20479;-81
2021/08/28 10:00:29;;;;;;;22.70;21.50;;;;;;;;;;5049089;28;20437;-81
2021/08/28 10:03:13;;;;;;;21.77;20.67;;;;;;;;;;5042287;28;20437;-81
2021/08/28 10:05:46;;;;;;;21.63;20.63;;;;;;;;;;5040394;28;20808;-81
2021/08/28 10:08:15;;;;;;;21.57;20.53;;;;;;;;;;5040054;28;20467;-81
2021/08/28 10:10:43;;;;;;;21.20;20.10;;;;;;;;;;5041078;28;20444;-81
2021/08/28 10:13:10;;;;;;;21.63;20.63;;;;;;;;;;5041160;28;20525;-80
2021/08/28 10:15:38;;;;;;;21.90;20.90;;;;;;;;;;5038489;28;20818;-84
2021/08/28 10:18:07;;;;;;;21.47;20.47;;;;;;;;;;5041673;28;20488;-85
2021/08/28 10:20:38;;;;;;;20.07;19.17;;;;;;;;;;5043819;28;20867;-85
2021/08/28 10:23:08;;;;;;;19.97;19.10;;;;;;;;;;5041947;28;20445;-83
2021/08/28 10:25:38;;;;;;;20.13;19.10;;;;;;;;;;5028657;28;20542;-82
2021/08/28 10:28:07;;;;;;;20.63;19.73;;;;;;;;;;5042003;28;20467;-81
2021/08/28 10:30:41;;;;;;;20.50;19.60;;;;;;;;;;5051432;28;20491;-81
2021/08/28 10:33:11;;;;;;;20.67;19.77;;;;;;;;;;5064711;28;20436;-82
2021/08/28 10:35:38;;;;;;;21.63;20.63;;;;;;;;;;5061309;28;20466;-83
2021/08/28 10:38:07;;;;;;;20.60;19.47;;;;;;;;;;5063816;28;20468;-83
2021/08/28 10:40:35;;;;;;;21.27;20.37;;;;;;;;;;5057667;28;20433;-83
2021/08/28 10:43:05;;;;;;;20.50;19.57;;;;;;;;;;5061396;28;20459;-83
2021/08/28 10:45:34;;;;;;;19.23;18.43;;;;;;;;;;5059004;28;20432;-83
2021/08/28 10:48:02;;;;;;;20.23;19.13;;;;;;;;;;5059742;28;20439;-83
2021/08/28 10:50:32;;;;;;;19.83;18.93;;;;;;;;;;5061063;28;20802;-83
2021/08/28 10:53:02;;;;;;;19.90;19.00;;;;;;;;;;5060303;28;20418;-83
2021/08/28 10:55:39;;;;;;;19.93;19.03;;;;;;;;;;5059007;28;20451;-83
2021/08/28 10:58:35;;;;;;;20.13;19.23;;;;;;;;;;5058586;28;20452;-83
2021/08/28 11:01:03;;;;;;;18.80;18.00;;;;;;;;;;5042660;28;20832;-83
2021/08/28 11:03:31;;;;;;;19.00;18.20;;;;;;;;;;5015960;28;20519;-83
2021/08/28 11:06:18;;;;;;;20.57;19.67;;;;;;;;;;5039740;28;20443;-83
2021/08/28 11:08:47;;;;;;;20.00;19.10;;;;;;;;;;5040313;28;20476;-83
2021/08/28 11:11:20;;;;;;;18.27;17.47;;;;;;;;;;5036694;28;20433;-83
2021/08/28 11:13:58;;;;;;;19.53;18.53;;;;;;;;;;5039210;28;20415;-83
2021/08/28 11:16:44;;;;;;;19.67;18.80;;;;;;;;;;5039102;28;20461;-83
2021/08/28 11:19:12;;;;;;;18.10;17.30;;;;;;;;;;5037155;28;20547;-83
2021/08/28 11:21:44;;;;;;;18.57;17.77;;;;;;;;;;5042390;28;20461;-82
2021/08/28 11:24:14;;;;;;;18.13;17.33;;;;;;;;;;5042899;28;20446;-83
2021/08/28 11:26:45;;;;;;;18.50;17.70;;;;;;;;;;5042864;28;20481;-83
2021/08/28 11:29:20;;;;;;;18.33;17.53;;;;;;;;;;5041721;28;20449;-83
2021/08/28 11:31:48;;;;;;;17.70;16.90;;;;;;;;;;5060796;28;20445;-83
2021/08/28 11:34:29;;;;;;;17.90;17.03;;;;;;;;;;5060483;28;20436;-82
2021/08/28 11:37:11;;;;;;;19.07;18.17;;;;;;;;;;5061300;28;20444;-80
2021/08/28 11:39:45;;;;;;;19.50;18.53;;;;;;;;;;5062133;28;20521;-85
2021/08/28 11:42:14;;;;;;;19.20;18.30;;;;;;;;;;5058407;28;20458;-83
2021/08/28 11:44:42;;;;;;;19.07;18.17;;;;;;;;;;5057115;28;20449;-83
2021/08/28 11:47:10;;;;;;;19.33;18.43;;;;;;;;;;5056641;28;20441;-81
2021/08/28 11:49:39;;;;;;;19.00;18.10;;;;;;;;;;5056476;28;20441;-80
2021/08/28 11:52:07;;;;;;;18.73;17.83;;;;;;;;;;5056485;28;20443;-81
2021/08/28 11:54:34;;;;;;;18.30;17.40;;;;;;;;;;5056416;28;20448;-83
2021/08/28 11:57:02;;;;;;;19.30;18.30;;;;;;;;;;5056187;28;20506;-82
2021/08/28 11:59:38;;;;;;;18.60;17.70;;;;;;;;;;5053246;28;20484;-86
2021/08/28 12:02:05;;;;;;;18.80;17.87;;;;;;;;;;5036517;28;20787;-82
2021/08/28 12:04:33;;;;;;;19.60;18.70;;;;;;;;;;5036485;28;20915;-83
2021/08/28 12:07:01;;;;;;;20.00;19.00;;;;;;;;;;5036837;28;20975;-82
2021/08/28 12:09:29;;;;;;;21.30;20.00;;;;;;;;;;5036673;28;20441;-82
2021/08/28 12:11:58;;;;;;;23.03;21.93;;;;;;;;;;5036628;28;20434;-83
2021/08/28 12:14:26;;;;;;;25.70;23.80;;;;;;;;;;5036532;28;20441;-83
2021/08/28 12:16:55;;;;;;;26.57;25.07;;;;;;;;;;5036447;28;20450;-83
2021/08/28 12:19:23;;;;;;;25.20;24.00;;;;;;;;;;5037392;28;20492;-83
2021/08/28 12:21:52;;;;;;;28.43;26.40;;;;;;;;;;5019271;28;20514;-84
2021/08/28 12:24:21;;;;;;;45.20;41.83;;;;;;;;;;5037720;28;20456;-83
2021/08/28 12:26:50;;;;;;;47.90;45.30;;;;;;;;;;5036279;28;20452;-86
2021/08/28 12:29:24;;;;;;;45.50;43.03;;;;;;;;;;5038925;28;20449;-84
2021/08/28 12:31:57;;;;;;;45.40;42.97;;;;;;;;;;5057031;28;20441;-84
2021/08/28 12:34:26;;;;;;;44.70;42.30;;;;;;;;;;5042105;28;20440;-84
2021/08/28 12:36:53;;;;;;;46.43;43.97;;;;;;;;;;5059437;28;20410;-84
2021/08/28 12:39:21;;;;;;;49.70;47.00;;;;;;;;;;5061104;28;21040;-84
2021/08/28 12:41:48;;;;;;;44.20;41.80;;;;;;;;;;5063351;28;20442;-84
2021/08/28 12:44:18;;;;;;;43.83;41.43;;;;;;;;;;5063373;28;20410;-84
2021/08/28 12:46:47;;;;;;;44.70;42.30;;;;;;;;;;5062722;28;20411;-84
2021/08/28 12:49:18;;;;;;;42.17;39.80;;;;;;;;;;5060118;28;20427;-83
2021/08/28 12:51:51;;;;;;;41.73;39.43;;;;;;;;;;5057468;28;20436;-83
2021/08/28 12:54:21;;;;;;;44.17;41.67;;;;;;;;;;5056805;28;20803;-84
2021/08/28 12:56:50;;;;;;;43.33;41.00;;;;;;;;;;5057533;28;20410;-83
2021/08/28 12:59:18;;;;;;;43.23;40.93;;;;;;;;;;5054468;28;20834;-82
2021/08/28 13:01:49;;;;;;;45.40;42.90;;;;;;;;;;5035171;28;20918;-83
2021/08/28 13:04:18;;;;;;;45.60;43.00;;;;;;;;;;5035278;28;20477;-83
2021/08/28 13:06:45;;;;;;;42.07;39.40;;;;;;;;;;5036331;28;20450;-90
2021/08/28 13:09:17;;;;;;;41.30;39.03;;;;;;;;;;5035734;28;20439;-83
2021/08/28 13:11:55;;;;;;;41.13;38.60;;;;;;;;;;5035910;28;20472;-84
2021/08/28 13:14:22;;;;;;;40.53;38.20;;;;;;;;;;5038296;28;20442;-83
2021/08/28 13:16:56;;;;;;;36.63;34.60;;;;;;;;;;5036497;28;20436;-83
2021/08/28 13:19:33;;;;;;;38.20;35.93;;;;;;;;;;5035411;28;20485;-83
2021/08/28 13:22:01;;;;;;;36.53;34.43;;;;;;;;;;5035279;28;20458;-83
2021/08/28 13:24:28;;;;;;;35.20;33.00;;;;;;;;;;5036683;28;20455;-83
2021/08/28 13:26:56;;;;;;;36.17;33.67;;;;;;;;;;5036692;28;20455;-83
2021/08/28 13:29:27;;;;;;;35.57;33.33;;;;;;;;;;5037726;28;20447;-85
2021/08/28 13:32:08;;;;;;;33.80;31.90;;;;;;;;;;5035909;28;20448;-85
2021/08/28 13:34:38;;;;;;;33.17;31.27;;;;;;;;;;5037340;28;20433;-83
2021/08/28 13:37:07;;;;;;;32.90;30.70;;;;;;;;;;5035474;28;20938;-83
2021/08/28 13:39:35;;;;;;;31.30;29.60;;;;;;;;;;5037134;28;20496;-83
2021/08/28 13:42:02;;;;;;;28.80;27.00;;;;;;;;;;5021469;28;20526;-83
2021/08/28 13:44:31;;;;;;;30.10;28.30;;;;;;;;;;5037814;28;20435;-81
2021/08/28 13:46:58;;;;;;;31.97;29.87;;;;;;;;;;5038723;28;20871;-83
2021/08/28 13:49:26;;;;;;;361.10;52.37;;;;;;;;;;5036585;28;20800;-85
2021/08/28 13:51:55;;;;;;;79.07;34.53;;;;;;;;;;5021151;28;20476;-85
2021/08/28 13:54:23;;;;;;;27.40;25.40;;;;;;;;;;5041209;28;20445;-85
2021/08/28 13:56:50;;;;;;;28.97;26.50;;;;;;;;;;5034807;28;20416;-84
2021/08/28 13:59:17;;;;;;;27.87;25.60;;;;;;;;;;5017164;28;20477;-84
2021/08/28 14:01:45;;;;;;;29.03;27.00;;;;;;;;;;5034692;28;20444;-84
2021/08/28 14:04:12;;;;;;;32.17;29.03;;;;;;;;;;5036035;28;20416;-84
2021/08/28 14:06:40;;;;;;;26.57;24.50;;;;;;;;;;5034534;28;20531;-84
2021/08/28 14:09:09;;;;;;;29.83;27.33;;;;;;;;;;5035011;28;20474;-84
2021/08/28 14:11:36;;;;;;;26.70;24.57;;;;;;;;;;5016440;28;20856;-84
2021/08/28 14:14:03;;;;;;;31.73;28.73;;;;;;;;;;5016990;28;20930;-84
2021/08/28 14:16:31;;;;;;;29.00;26.70;;;;;;;;;;5034306;28;20916;-84
2021/08/28 14:18:58;;;;;;;31.67;28.77;;;;;;;;;;5034196;28;20547;-84
2021/08/28 14:21:27;;;;;;;22.83;21.33;;;;;;;;;;5034182;28;20440;-84
2021/08/28 14:23:55;;;;;;;24.20;22.53;;;;;;;;;;5016654;28;20941;-84
2021/08/28 14:26:24;;;;;;;24.17;22.50;;;;;;;;;;5034437;28;20459;-84
2021/08/28 14:28:52;;;;;;;22.70;21.20;;;;;;;;;;5034596;28;20432;-84